sensor_id;sensor_type;location;lat;lon;timestamp;P1;durP1;ratioP1;P2;durP2;ratioP2
60610;SDS011;46439;51.164;13.572;2022-09-02T00:00:53;8.20;;;3.40;;
60610;SDS011;46439;51.164;13.572;2022-09-02T00:03:25;7.20;;;3.60;;
60610;SDS011;46439;51.164;13.572;2022-09-02T00:05:55;8.30;;;3.80;;
60610;SDS011;46439;51.164;13.572;2022-09-02T00:08:24;13.30;;;3.70;;
60610;SDS011;46439;51.164;13.572;2022-09-02T00:10:52;5.70;;;3.40;;
60610;SDS011;46439;51.164;13.572;2022-09-02T00:13:20;10.40;;;3.90;;
60610;SDS011;46439;51.164;13.572;2022-09-02T00:15:49;7.30;;;3.80;;
60610;SDS011;46439;51.164;13.572;2022-09-02T00:18:17;8.80;;;3.50;;
60610;SDS011;46439;51.164;13.572;2022-09-02T00:20:46;11.60;;;3.70;;
60610;SDS011;46439;51.164;13.572;2022-09-02T00:23:15;11.10;;;3.80;;
60610;SDS011;46439;51.164;13.572;2022-09-02T00:25:43;7.80;;;3.70;;
60610;SDS011;46439;51.164;13.572;2022-09-02T00:28:12;9.70;;;3.70;;
60610;SDS011;46439;51.164;13.572;2022-09-02T00:30:42;11.60;;;3.80;;
60610;SDS011;46439;51.164;13.572;2022-09-02T00:33:11;11.00;;;4.10;;
60610;SDS011;46439;51.164;13.572;2022-09-02T00:35:40;9.90;;;3.80;;
60610;SDS011;46439;51.164;13.572;2022-09-02T00:38:09;6.10;;;3.50;;
60610;SDS011;46439;51.164;13.572;2022-09-02T00:40:37;9.30;;;3.70;;
60610;SDS011;46439;51.164;13.572;2022-09-02T00:43:10;7.30;;;3.60;;
60610;SDS011;46439;51.164;13.572;2022-09-02T00:45:47;8.10;;;3.70;;
60610;SDS011;46439;51.164;13.572;2022-09-02T00:48:17;10.20;;;3.90;;
60610;SDS011;46439;51.164;13.572;2022-09-02T00:50:46;9.60;;;3.70;;
60610;SDS011;46439;51.164;13.572;2022-09-02T00:53:14;5.90;;;3.50;;
60610;SDS011;46439;51.164;13.572;2022-09-02T00:55:43;7.10;;;3.70;;
60610;SDS011;46439;51.164;13.572;2022-09-02T00:58:15;11.80;;;4.40;;
60610;SDS011;46439;51.164;13.572;2022-09-02T01:00:50;8.90;;;3.50;;
60610;SDS011;46439;51.164;13.572;2022-09-02T01:03:24;8.80;;;3.90;;
60610;SDS011;46439;51.164;13.572;2022-09-02T01:05:55;12.30;;;4.00;;
60610;SDS011;46439;51.164;13.572;2022-09-02T01:08:25;9.80;;;4.10;;
60610;SDS011;46439;51.164;13.572;2022-09-02T01:11:00;9.80;;;4.20;;
60610;SDS011;46439;51.164;13.572;2022-09-02T01:16:03;7.80;;;3.90;;
60610;SDS011;46439;51.164;13.572;2022-09-02T01:18:36;7.90;;;3.90;;
60610;SDS011;46439;51.164;13.572;2022-09-02T01:21:05;9.10;;;4.10;;
60610;SDS011;46439;51.164;13.572;2022-09-02T01:23:33;11.30;;;4.00;;
60610;SDS011;46439;51.164;13.572;2022-09-02T01:26:03;8.20;;;4.10;;
60610;SDS011;46439;51.164;13.572;2022-09-02T01:28:33;11.50;;;4.20;;
60610;SDS011;46439;51.164;13.572;2022-09-02T01:31:02;8.30;;;4.10;;
60610;SDS011;46439;51.164;13.572;2022-09-02T01:33:31;8.00;;;4.00;;
60610;SDS011;46439;51.164;13.572;2022-09-02T01:36:00;7.80;;;3.90;;
60610;SDS011;46439;51.164;13.572;2022-09-02T01:38:30;11.10;;;4.20;;
60610;SDS011;46439;51.164;13.572;2022-09-02T01:40:58;8.80;;;3.90;;
60610;SDS011;46439;51.164;13.572;2022-09-02T01:43:27;8.10;;;4.40;;
60610;SDS011;46439;51.164;13.572;2022-09-02T01:45:56;9.50;;;4.20;;
60610;SDS011;46439;51.164;13.572;2022-09-02T01:48:25;7.50;;;4.10;;
60610;SDS011;46439;51.164;13.572;2022-09-02T01:50:55;9.20;;;4.40;;
60610;SDS011;46439;51.164;13.572;2022-09-02T01:53:25;9.90;;;4.40;;
60610;SDS011;46439;51.164;13.572;2022-09-02T01:55:55;10.60;;;4.30;;
60610;SDS011;46439;51.164;13.572;2022-09-02T01:58:23;8.70;;;4.30;;
60610;SDS011;46439;51.164;13.572;2022-09-02T02:00:52;10.10;;;4.30;;
60610;SDS011;46439;51.164;13.572;2022-09-02T02:03:20;9.00;;;5.00;;
60610;SDS011;46439;51.164;13.572;2022-09-02T02:05:50;10.90;;;4.10;;
60610;SDS011;46439;51.164;13.572;2022-09-02T02:08:20;9.40;;;4.30;;
60610;SDS011;46439;51.164;13.572;2022-09-02T02:10:52;10.50;;;4.50;;
60610;SDS011;46439;51.164;13.572;2022-09-02T02:13:20;8.70;;;4.10;;
60610;SDS011;46439;51.164;13.572;2022-09-02T02:15:49;11.10;;;4.80;;
60610;SDS011;46439;51.164;13.572;2022-09-02T02:18:17;9.10;;;4.50;;
60610;SDS011;46439;51.164;13.572;2022-09-02T02:20:46;7.40;;;4.20;;
60610;SDS011;46439;51.164;13.572;2022-09-02T02:23:14;10.70;;;4.50;;
60610;SDS011;46439;51.164;13.572;2022-09-02T02:25:43;9.40;;;4.20;;
60610;SDS011;46439;51.164;13.572;2022-09-02T02:28:12;9.00;;;4.60;;
60610;SDS011;46439;51.164;13.572;2022-09-02T02:30:40;10.60;;;4.60;;
60610;SDS011;46439;51.164;13.572;2022-09-02T02:33:09;10.80;;;5.10;;
60610;SDS011;46439;51.164;13.572;2022-09-02T02:35:37;7.20;;;4.40;;
60610;SDS011;46439;51.164;13.572;2022-09-02T02:38:05;9.80;;;5.10;;
60610;SDS011;46439;51.164;13.572;2022-09-02T02:40:35;10.70;;;4.30;;
60610;SDS011;46439;51.164;13.572;2022-09-02T02:43:04;9.00;;;5.10;;
60610;SDS011;46439;51.164;13.572;2022-09-02T02:45:32;9.70;;;4.50;;
60610;SDS011;46439;51.164;13.572;2022-09-02T02:48:01;14.60;;;4.70;;
60610;SDS011;46439;51.164;13.572;2022-09-02T02:50:33;10.00;;;4.70;;
60610;SDS011;46439;51.164;13.572;2022-09-02T02:53:02;11.80;;;4.80;;
60610;SDS011;46439;51.164;13.572;2022-09-02T02:55:31;12.90;;;4.80;;
60610;SDS011;46439;51.164;13.572;2022-09-02T02:58:00;7.40;;;4.50;;
60610;SDS011;46439;51.164;13.572;2022-09-02T03:00:32;11.60;;;4.90;;
60610;SDS011;46439;51.164;13.572;2022-09-02T03:03:03;6.80;;;4.40;;
60610;SDS011;46439;51.164;13.572;2022-09-02T03:05:33;11.20;;;4.90;;
60610;SDS011;46439;51.164;13.572;2022-09-02T03:08:03;9.00;;;4.60;;
60610;SDS011;46439;51.164;13.572;2022-09-02T03:10:34;11.10;;;4.40;;
60610;SDS011;46439;51.164;13.572;2022-09-02T03:13:04;8.00;;;4.30;;
60610;SDS011;46439;51.164;13.572;2022-09-02T03:15:34;10.90;;;4.60;;
60610;SDS011;46439;51.164;13.572;2022-09-02T03:18:03;10.10;;;4.60;;
60610;SDS011;46439;51.164;13.572;2022-09-02T03:20:32;8.30;;;4.50;;
60610;SDS011;46439;51.164;13.572;2022-09-02T03:23:01;13.60;;;4.80;;
60610;SDS011;46439;51.164;13.572;2022-09-02T03:25:30;10.30;;;5.10;;
60610;SDS011;46439;51.164;13.572;2022-09-02T03:28:00;10.60;;;4.90;;
60610;SDS011;46439;51.164;13.572;2022-09-02T03:30:30;9.90;;;4.80;;
60610;SDS011;46439;51.164;13.572;2022-09-02T03:33:00;9.30;;;5.30;;
60610;SDS011;46439;51.164;13.572;2022-09-02T03:35:31;11.10;;;4.90;;
60610;SDS011;46439;51.164;13.572;2022-09-02T03:38:04;8.20;;;4.60;;
60610;SDS011;46439;51.164;13.572;2022-09-02T03:40:34;10.10;;;4.60;;
60610;SDS011;46439;51.164;13.572;2022-09-02T03:43:03;8.20;;;4.60;;
60610;SDS011;46439;51.164;13.572;2022-09-02T03:45:31;7.60;;;4.70;;
60610;SDS011;46439;51.164;13.572;2022-09-02T03:48:00;11.20;;;5.30;;
60610;SDS011;46439;51.164;13.572;2022-09-02T03:50:30;13.30;;;5.60;;
60610;SDS011;46439;51.164;13.572;2022-09-02T03:53:02;10.60;;;5.20;;
60610;SDS011;46439;51.164;13.572;2022-09-02T03:55:31;9.90;;;5.00;;
60610;SDS011;46439;51.164;13.572;2022-09-02T03:57:59;9.60;;;4.90;;
60610;SDS011;46439;51.164;13.572;2022-09-02T04:00:28;10.90;;;4.80;;
60610;SDS011;46439;51.164;13.572;2022-09-02T04:02:57;12.50;;;5.20;;
60610;SDS011;46439;51.164;13.572;2022-09-02T04:05:29;9.90;;;5.10;;
60610;SDS011;46439;51.164;13.572;2022-09-02T04:07:58;11.70;;;5.50;;
60610;SDS011;46439;51.164;13.572;2022-09-02T04:10:26;8.90;;;5.10;;
60610;SDS011;46439;51.164;13.572;2022-09-02T04:12:55;10.10;;;4.90;;
60610;SDS011;46439;51.164;13.572;2022-09-02T04:15:23;10.70;;;5.60;;
60610;SDS011;46439;51.164;13.572;2022-09-02T04:17:52;9.90;;;5.70;;
60610;SDS011;46439;51.164;13.572;2022-09-02T04:20:21;13.20;;;5.90;;
60610;SDS011;46439;51.164;13.572;2022-09-02T04:22:49;11.30;;;6.10;;
60610;SDS011;46439;51.164;13.572;2022-09-02T04:25:18;11.50;;;5.80;;
60610;SDS011;46439;51.164;13.572;2022-09-02T04:27:46;9.20;;;5.20;;
60610;SDS011;46439;51.164;13.572;2022-09-02T04:30:14;12.90;;;5.90;;
60610;SDS011;46439;51.164;13.572;2022-09-02T04:35:17;14.60;;;5.40;;
60610;SDS011;46439;51.164;13.572;2022-09-02T04:37:45;12.20;;;5.50;;
60610;SDS011;46439;51.164;13.572;2022-09-02T04:40:14;16.90;;;5.70;;
60610;SDS011;46439;51.164;13.572;2022-09-02T04:42:46;14.00;;;7.00;;
60610;SDS011;46439;51.164;13.572;2022-09-02T04:45:14;15.10;;;5.80;;
60610;SDS011;46439;51.164;13.572;2022-09-02T04:47:43;18.30;;;6.70;;
60610;SDS011;46439;51.164;13.572;2022-09-02T04:50:11;13.70;;;6.10;;
60610;SDS011;46439;51.164;13.572;2022-09-02T04:52:39;17.10;;;5.70;;
60610;SDS011;46439;51.164;13.572;2022-09-02T04:55:08;13.40;;;5.60;;
60610;SDS011;46439;51.164;13.572;2022-09-02T04:57:37;10.60;;;5.60;;
60610;SDS011;46439;51.164;13.572;2022-09-02T05:00:06;10.70;;;5.60;;
60610;SDS011;46439;51.164;13.572;2022-09-02T05:02:36;9.90;;;5.70;;
60610;SDS011;46439;51.164;13.572;2022-09-02T05:05:06;14.90;;;6.10;;
60610;SDS011;46439;51.164;13.572;2022-09-02T05:07:36;18.60;;;7.70;;
60610;SDS011;46439;51.164;13.572;2022-09-02T05:10:06;19.00;;;9.30;;
60610;SDS011;46439;51.164;13.572;2022-09-02T05:12:39;19.00;;;8.80;;
60610;SDS011;46439;51.164;13.572;2022-09-02T05:17:38;13.00;;;7.00;;
60610;SDS011;46439;51.164;13.572;2022-09-02T05:20:09;13.50;;;7.20;;
60610;SDS011;46439;51.164;13.572;2022-09-02T05:22:38;13.00;;;6.60;;
60610;SDS011;46439;51.164;13.572;2022-09-02T05:25:07;14.60;;;6.90;;
60610;SDS011;46439;51.164;13.572;2022-09-02T05:27:36;12.40;;;7.20;;
60610;SDS011;46439;51.164;13.572;2022-09-02T05:30:07;13.20;;;6.40;;
60610;SDS011;46439;51.164;13.572;2022-09-02T05:32:36;12.10;;;6.80;;
60610;SDS011;46439;51.164;13.572;2022-09-02T05:35:07;13.80;;;7.10;;
60610;SDS011;46439;51.164;13.572;2022-09-02T05:37:36;11.60;;;7.20;;
60610;SDS011;46439;51.164;13.572;2022-09-02T05:40:05;15.80;;;7.20;;
60610;SDS011;46439;51.164;13.572;2022-09-02T05:42:37;17.40;;;6.90;;
60610;SDS011;46439;51.164;13.572;2022-09-02T05:45:07;13.60;;;6.50;;
60610;SDS011;46439;51.164;13.572;2022-09-02T05:47:36;13.40;;;6.70;;
60610;SDS011;46439;51.164;13.572;2022-09-02T05:50:06;14.80;;;6.90;;
60610;SDS011;46439;51.164;13.572;2022-09-02T05:52:35;15.60;;;6.40;;
60610;SDS011;46439;51.164;13.572;2022-09-02T05:55:06;14.70;;;6.80;;
60610;SDS011;46439;51.164;13.572;2022-09-02T05:57:35;13.30;;;7.10;;
60610;SDS011;46439;51.164;13.572;2022-09-02T06:00:04;14.30;;;7.20;;
60610;SDS011;46439;51.164;13.572;2022-09-02T06:02:34;20.20;;;6.70;;
60610;SDS011;46439;51.164;13.572;2022-09-02T06:05:03;14.20;;;6.70;;
60610;SDS011;46439;51.164;13.572;2022-09-02T06:07:32;15.10;;;7.40;;
60610;SDS011;46439;51.164;13.572;2022-09-02T06:10:03;12.00;;;6.60;;
60610;SDS011;46439;51.164;13.572;2022-09-02T06:12:35;16.60;;;6.80;;
60610;SDS011;46439;51.164;13.572;2022-09-02T06:15:05;12.20;;;6.70;;
60610;SDS011;46439;51.164;13.572;2022-09-02T06:17:33;11.60;;;6.30;;
60610;SDS011;46439;51.164;13.572;2022-09-02T06:20:03;11.30;;;6.60;;
60610;SDS011;46439;51.164;13.572;2022-09-02T06:22:32;15.70;;;6.90;;
60610;SDS011;46439;51.164;13.572;2022-09-02T06:25:01;15.50;;;7.00;;
60610;SDS011;46439;51.164;13.572;2022-09-02T06:27:31;14.40;;;6.80;;
60610;SDS011;46439;51.164;13.572;2022-09-02T06:29:59;14.00;;;6.40;;
60610;SDS011;46439;51.164;13.572;2022-09-02T06:32:28;10.90;;;6.50;;
60610;SDS011;46439;51.164;13.572;2022-09-02T06:34:57;15.10;;;6.40;;
60610;SDS011;46439;51.164;13.572;2022-09-02T06:37:26;17.40;;;6.30;;
60610;SDS011;46439;51.164;13.572;2022-09-02T06:39:54;12.80;;;6.20;;
60610;SDS011;46439;51.164;13.572;2022-09-02T06:42:23;16.30;;;7.20;;
60610;SDS011;46439;51.164;13.572;2022-09-02T06:44:52;15.40;;;6.60;;
60610;SDS011;46439;51.164;13.572;2022-09-02T06:47:20;17.00;;;6.40;;
60610;SDS011;46439;51.164;13.572;2022-09-02T06:49:49;13.70;;;5.40;;
60610;SDS011;46439;51.164;13.572;2022-09-02T06:52:17;10.90;;;5.70;;
60610;SDS011;46439;51.164;13.572;2022-09-02T06:54:45;15.00;;;5.70;;
60610;SDS011;46439;51.164;13.572;2022-09-02T06:57:15;13.60;;;5.80;;
60610;SDS011;46439;51.164;13.572;2022-09-02T06:59:44;9.90;;;5.00;;
60610;SDS011;46439;51.164;13.572;2022-09-02T07:02:12;9.60;;;5.20;;
60610;SDS011;46439;51.164;13.572;2022-09-02T07:04:43;9.10;;;4.90;;
60610;SDS011;46439;51.164;13.572;2022-09-02T07:07:30;10.30;;;4.20;;
60610;SDS011;46439;51.164;13.572;2022-09-02T07:09:59;13.30;;;5.60;;
60610;SDS011;46439;51.164;13.572;2022-09-02T07:12:28;10.70;;;4.20;;
60610;SDS011;46439;51.164;13.572;2022-09-02T07:14:57;10.20;;;4.20;;
60610;SDS011;46439;51.164;13.572;2022-09-02T07:17:25;9.40;;;3.90;;
60610;SDS011;46439;51.164;13.572;2022-09-02T07:19:54;8.70;;;3.50;;
60610;SDS011;46439;51.164;13.572;2022-09-02T07:22:24;9.70;;;3.50;;
60610;SDS011;46439;51.164;13.572;2022-09-02T07:24:53;7.80;;;3.40;;
60610;SDS011;46439;51.164;13.572;2022-09-02T07:27:22;8.60;;;2.80;;
60610;SDS011;46439;51.164;13.572;2022-09-02T07:29:51;6.70;;;3.50;;
60610;SDS011;46439;51.164;13.572;2022-09-02T07:32:20;8.20;;;3.00;;
60610;SDS011;46439;51.164;13.572;2022-09-02T07:34:48;7.90;;;3.40;;
60610;SDS011;46439;51.164;13.572;2022-09-02T07:37:17;6.80;;;3.30;;
60610;SDS011;46439;51.164;13.572;2022-09-02T07:39:47;7.20;;;3.40;;
60610;SDS011;46439;51.164;13.572;2022-09-02T07:42:16;8.20;;;3.50;;
60610;SDS011;46439;51.164;13.572;2022-09-02T07:44:45;10.10;;;3.40;;
60610;SDS011;46439;51.164;13.572;2022-09-02T07:47:20;9.10;;;3.10;;
60610;SDS011;46439;51.164;13.572;2022-09-02T07:49:51;8.50;;;2.90;;
60610;SDS011;46439;51.164;13.572;2022-09-02T07:52:19;7.10;;;2.70;;
60610;SDS011;46439;51.164;13.572;2022-09-02T07:54:48;4.90;;;2.40;;
60610;SDS011;46439;51.164;13.572;2022-09-02T07:57:16;3.40;;;2.10;;
60610;SDS011;46439;51.164;13.572;2022-09-02T07:59:47;5.70;;;2.50;;
60610;SDS011;46439;51.164;13.572;2022-09-02T08:02:16;5.80;;;2.60;;
60610;SDS011;46439;51.164;13.572;2022-09-02T08:04:44;9.40;;;2.60;;
60610;SDS011;46439;51.164;13.572;2022-09-02T08:07:13;6.40;;;2.60;;
60610;SDS011;46439;51.164;13.572;2022-09-02T08:09:48;7.20;;;2.50;;
60610;SDS011;46439;51.164;13.572;2022-09-02T08:12:20;8.10;;;2.70;;
60610;SDS011;46439;51.164;13.572;2022-09-02T08:14:48;5.70;;;2.60;;
60610;SDS011;46439;51.164;13.572;2022-09-02T08:17:22;6.30;;;2.70;;
60610;SDS011;46439;51.164;13.572;2022-09-02T08:19:51;5.90;;;2.70;;
60610;SDS011;46439;51.164;13.572;2022-09-02T08:22:19;6.20;;;2.60;;
60610;SDS011;46439;51.164;13.572;2022-09-02T08:24:48;7.00;;;2.90;;
60610;SDS011;46439;51.164;13.572;2022-09-02T08:27:16;6.00;;;2.70;;
60610;SDS011;46439;51.164;13.572;2022-09-02T08:29:44;9.00;;;2.70;;
60610;SDS011;46439;51.164;13.572;2022-09-02T08:32:13;13.10;;;3.30;;
60610;SDS011;46439;51.164;13.572;2022-09-02T08:34:41;7.60;;;2.60;;
60610;SDS011;46439;51.164;13.572;2022-09-02T08:37:10;5.90;;;2.70;;
60610;SDS011;46439;51.164;13.572;2022-09-02T08:39:39;6.70;;;2.00;;
60610;SDS011;46439;51.164;13.572;2022-09-02T08:42:10;11.10;;;2.80;;
60610;SDS011;46439;51.164;13.572;2022-09-02T08:44:46;8.50;;;2.80;;
60610;SDS011;46439;51.164;13.572;2022-09-02T08:47:20;5.20;;;2.20;;
60610;SDS011;46439;51.164;13.572;2022-09-02T08:49:56;8.80;;;2.10;;
60610;SDS011;46439;51.164;13.572;2022-09-02T08:52:32;7.40;;;2.40;;
60610;SDS011;46439;51.164;13.572;2022-09-02T08:55:05;6.40;;;2.60;;
60610;SDS011;46439;51.164;13.572;2022-09-02T08:57:37;4.50;;;2.30;;
60610;SDS011;46439;51.164;13.572;2022-09-02T09:00:08;7.60;;;2.50;;
60610;SDS011;46439;51.164;13.572;2022-09-02T09:02:45;6.80;;;2.40;;
60610;SDS011;46439;51.164;13.572;2022-09-02T09:05:36;8.10;;;2.90;;
60610;SDS011;46439;51.164;13.572;2022-09-02T09:08:15;5.90;;;2.10;;
60610;SDS011;46439;51.164;13.572;2022-09-02T09:10:58;6.50;;;2.30;;
60610;SDS011;46439;51.164;13.572;2022-09-02T09:16:45;4.90;;;2.30;;
60610;SDS011;46439;51.164;13.572;2022-09-02T09:19:29;4.70;;;2.10;;
60610;SDS011;46439;51.164;13.572;2022-09-02T09:22:04;3.60;;;2.00;;
60610;SDS011;46439;51.164;13.572;2022-09-02T09:24:37;5.10;;;2.00;;
60610;SDS011;46439;51.164;13.572;2022-09-02T09:27:08;5.00;;;2.10;;
60610;SDS011;46439;51.164;13.572;2022-09-02T09:29:39;6.40;;;1.90;;
60610;SDS011;46439;51.164;13.572;2022-09-02T09:32:10;7.30;;;1.90;;
60610;SDS011;46439;51.164;13.572;2022-09-02T09:34:56;3.80;;;1.80;;
60610;SDS011;46439;51.164;13.572;2022-09-02T09:37:33;4.90;;;1.90;;
60610;SDS011;46439;51.164;13.572;2022-09-02T09:40:27;2.90;;;1.80;;
60610;SDS011;46439;51.164;13.572;2022-09-02T09:43:10;3.70;;;1.70;;
60610;SDS011;46439;51.164;13.572;2022-09-02T09:45:54;4.10;;;1.60;;
60610;SDS011;46439;51.164;13.572;2022-09-02T09:48:47;6.70;;;1.90;;
60610;SDS011;46439;51.164;13.572;2022-09-02T09:51:17;2.90;;;1.80;;
60610;SDS011;46439;51.164;13.572;2022-09-02T09:53:45;3.70;;;1.80;;
60610;SDS011;46439;51.164;13.572;2022-09-02T09:56:26;4.50;;;1.90;;
60610;SDS011;46439;51.164;13.572;2022-09-02T09:59:01;3.30;;;1.60;;
60610;SDS011;46439;51.164;13.572;2022-09-02T10:01:54;13.40;;;1.90;;
60610;SDS011;46439;51.164;13.572;2022-09-02T10:04:26;3.90;;;1.80;;
60610;SDS011;46439;51.164;13.572;2022-09-02T10:06:57;5.40;;;1.70;;
60610;SDS011;46439;51.164;13.572;2022-09-02T10:09:28;3.60;;;1.60;;
60610;SDS011;46439;51.164;13.572;2022-09-02T10:12:00;4.90;;;1.70;;
60610;SDS011;46439;51.164;13.572;2022-09-02T10:14:34;3.30;;;1.80;;
60610;SDS011;46439;51.164;13.572;2022-09-02T10:17:26;5.20;;;1.70;;
60610;SDS011;46439;51.164;13.572;2022-09-02T10:20:02;3.60;;;1.70;;
60610;SDS011;46439;51.164;13.572;2022-09-02T10:25:38;5.10;;;1.50;;
60610;SDS011;46439;51.164;13.572;2022-09-02T10:28:30;2.20;;;1.70;;
60610;SDS011;46439;51.164;13.572;2022-09-02T10:31:13;3.50;;;1.60;;
60610;SDS011;46439;51.164;13.572;2022-09-02T10:33:52;4.00;;;1.50;;
60610;SDS011;46439;51.164;13.572;2022-09-02T10:36:31;2.80;;;1.70;;
60610;SDS011;46439;51.164;13.572;2022-09-02T10:39:09;4.00;;;1.60;;
60610;SDS011;46439;51.164;13.572;2022-09-02T10:44:22;4.30;;;1.70;;
60610;SDS011;46439;51.164;13.572;2022-09-02T10:46:59;4.50;;;1.60;;
60610;SDS011;46439;51.164;13.572;2022-09-02T10:49:33;2.70;;;1.30;;
60610;SDS011;46439;51.164;13.572;2022-09-02T10:52:25;2.80;;;1.50;;
60610;SDS011;46439;51.164;13.572;2022-09-02T10:55:05;2.20;;;1.60;;
60610;SDS011;46439;51.164;13.572;2022-09-02T10:57:44;5.60;;;1.90;;
60610;SDS011;46439;51.164;13.572;2022-09-02T11:00:16;2.30;;;1.50;;
60610;SDS011;46439;51.164;13.572;2022-09-02T11:02:48;3.30;;;1.60;;
60610;SDS011;46439;51.164;13.572;2022-09-02T11:05:23;4.00;;;1.70;;
60610;SDS011;46439;51.164;13.572;2022-09-02T11:07:54;2.50;;;1.70;;
60610;SDS011;46439;51.164;13.572;2022-09-02T11:10:30;2.10;;;1.60;;
60610;SDS011;46439;51.164;13.572;2022-09-02T11:13:03;4.00;;;1.60;;
60610;SDS011;46439;51.164;13.572;2022-09-02T11:15:39;4.10;;;1.80;;
60610;SDS011;46439;51.164;13.572;2022-09-02T11:18:24;4.90;;;1.60;;
60610;SDS011;46439;51.164;13.572;2022-09-02T11:20:58;2.40;;;1.30;;
60610;SDS011;46439;51.164;13.572;2022-09-02T11:23:33;2.50;;;1.50;;
60610;SDS011;46439;51.164;13.572;2022-09-02T11:26:06;3.30;;;1.40;;
60610;SDS011;46439;51.164;13.572;2022-09-02T11:28:43;2.40;;;1.60;;
60610;SDS011;46439;51.164;13.572;2022-09-02T11:31:21;4.20;;;1.50;;
60610;SDS011;46439;51.164;13.572;2022-09-02T11:33:56;2.70;;;1.70;;
60610;SDS011;46439;51.164;13.572;2022-09-02T11:36:28;4.20;;;1.60;;
60610;SDS011;46439;51.164;13.572;2022-09-02T11:39:03;2.10;;;1.30;;
60610;SDS011;46439;51.164;13.572;2022-09-02T11:41:45;2.10;;;1.50;;
60610;SDS011;46439;51.164;13.572;2022-09-02T11:44:33;3.30;;;1.50;;
60610;SDS011;46439;51.164;13.572;2022-09-02T11:50:13;2.50;;;1.40;;
60610;SDS011;46439;51.164;13.572;2022-09-02T11:53:10;3.20;;;1.50;;
60610;SDS011;46439;51.164;13.572;2022-09-02T11:55:46;1.90;;;1.50;;
60610;SDS011;46439;51.164;13.572;2022-09-02T11:58:32;3.20;;;1.60;;
60610;SDS011;46439;51.164;13.572;2022-09-02T12:01:04;3.90;;;1.50;;
60610;SDS011;46439;51.164;13.572;2022-09-02T12:03:45;3.20;;;1.40;;
60610;SDS011;46439;51.164;13.572;2022-09-02T12:06:19;2.20;;;1.40;;
60610;SDS011;46439;51.164;13.572;2022-09-02T12:11:40;3.20;;;1.60;;
60610;SDS011;46439;51.164;13.572;2022-09-02T12:14:11;2.00;;;1.40;;
60610;SDS011;46439;51.164;13.572;2022-09-02T12:17:33;3.70;;;1.60;;
60610;SDS011;46439;51.164;13.572;2022-09-02T12:20:04;1.60;;;1.40;;
60610;SDS011;46439;51.164;13.572;2022-09-02T12:22:35;3.00;;;1.40;;
60610;SDS011;46439;51.164;13.572;2022-09-02T12:28:20;1.90;;;1.50;;
60610;SDS011;46439;51.164;13.572;2022-09-02T12:37:53;2.90;;;1.40;;
60610;SDS011;46439;51.164;13.572;2022-09-02T12:40:33;3.70;;;1.30;;
60610;SDS011;46439;51.164;13.572;2022-09-02T12:43:15;2.60;;;1.40;;
60610;SDS011;46439;51.164;13.572;2022-09-02T12:45:51;2.80;;;1.60;;
60610;SDS011;46439;51.164;13.572;2022-09-02T12:48:29;3.40;;;1.40;;
60610;SDS011;46439;51.164;13.572;2022-09-02T12:51:09;2.70;;;1.20;;
60610;SDS011;46439;51.164;13.572;2022-09-02T12:54:01;2.00;;;1.50;;
60610;SDS011;46439;51.164;13.572;2022-09-02T12:56:31;3.10;;;1.40;;
60610;SDS011;46439;51.164;13.572;2022-09-02T12:59:00;2.60;;;1.40;;
60610;SDS011;46439;51.164;13.572;2022-09-02T13:01:32;1.90;;;1.30;;
60610;SDS011;46439;51.164;13.572;2022-09-02T13:04:15;3.90;;;1.40;;
60610;SDS011;46439;51.164;13.572;2022-09-02T13:07:05;2.80;;;1.30;;
60610;SDS011;46439;51.164;13.572;2022-09-02T13:10:01;5.50;;;1.40;;
60610;SDS011;46439;51.164;13.572;2022-09-02T13:12:47;2.70;;;1.20;;
60610;SDS011;46439;51.164;13.572;2022-09-02T13:15:34;3.20;;;1.40;;
60610;SDS011;46439;51.164;13.572;2022-09-02T13:18:28;4.60;;;1.30;;
60610;SDS011;46439;51.164;13.572;2022-09-02T13:21:23;2.00;;;1.10;;
60610;SDS011;46439;51.164;13.572;2022-09-02T13:24:24;3.20;;;1.40;;
60610;SDS011;46439;51.164;13.572;2022-09-02T13:30:07;3.00;;;1.20;;
60610;SDS011;46439;51.164;13.572;2022-09-02T13:32:44;2.50;;;1.20;;
60610;SDS011;46439;51.164;13.572;2022-09-02T13:35:23;2.40;;;1.30;;
60610;SDS011;46439;51.164;13.572;2022-09-02T13:37:56;3.60;;;1.40;;
60610;SDS011;46439;51.164;13.572;2022-09-02T13:40:26;1.30;;;1.20;;
60610;SDS011;46439;51.164;13.572;2022-09-02T13:42:59;1.90;;;1.20;;
60610;SDS011;46439;51.164;13.572;2022-09-02T13:45:33;1.40;;;1.20;;
60610;SDS011;46439;51.164;13.572;2022-09-02T13:48:05;2.30;;;1.30;;
60610;SDS011;46439;51.164;13.572;2022-09-02T13:50:40;1.40;;;1.30;;
60610;SDS011;46439;51.164;13.572;2022-09-02T13:53:12;2.30;;;1.40;;
60610;SDS011;46439;51.164;13.572;2022-09-02T13:55:48;2.80;;;1.20;;
60610;SDS011;46439;51.164;13.572;2022-09-02T13:58:22;1.80;;;1.30;;
60610;SDS011;46439;51.164;13.572;2022-09-02T14:01:16;1.60;;;1.30;;
60610;SDS011;46439;51.164;13.572;2022-09-02T14:03:52;2.70;;;1.40;;
60610;SDS011;46439;51.164;13.572;2022-09-02T14:06:23;2.60;;;1.40;;
60610;SDS011;46439;51.164;13.572;2022-09-02T14:08:55;2.70;;;1.30;;
60610;SDS011;46439;51.164;13.572;2022-09-02T14:11:26;4.00;;;1.50;;
60610;SDS011;46439;51.164;13.572;2022-09-02T14:14:00;2.00;;;1.30;;
60610;SDS011;46439;51.164;13.572;2022-09-02T14:16:31;1.50;;;1.30;;
60610;SDS011;46439;51.164;13.572;2022-09-02T14:19:05;4.50;;;1.40;;
60610;SDS011;46439;51.164;13.572;2022-09-02T14:21:47;3.00;;;1.40;;
60610;SDS011;46439;51.164;13.572;2022-09-02T14:24:20;1.80;;;1.20;;
60610;SDS011;46439;51.164;13.572;2022-09-02T14:26:50;2.50;;;1.30;;
60610;SDS011;46439;51.164;13.572;2022-09-02T14:29:23;2.80;;;1.50;;
60610;SDS011;46439;51.164;13.572;2022-09-02T14:32:05;2.30;;;1.30;;
60610;SDS011;46439;51.164;13.572;2022-09-02T14:34:39;1.40;;;1.30;;
60610;SDS011;46439;51.164;13.572;2022-09-02T14:37:20;2.50;;;1.40;;
60610;SDS011;46439;51.164;13.572;2022-09-02T14:39:51;2.80;;;1.40;;
60610;SDS011;46439;51.164;13.572;2022-09-02T14:42:30;1.80;;;1.30;;
60610;SDS011;46439;51.164;13.572;2022-09-02T14:45:00;2.80;;;1.40;;
60610;SDS011;46439;51.164;13.572;2022-09-02T14:47:30;2.80;;;1.40;;
60610;SDS011;46439;51.164;13.572;2022-09-02T14:50:05;2.00;;;1.50;;
60610;SDS011;46439;51.164;13.572;2022-09-02T14:52:47;3.40;;;1.40;;
60610;SDS011;46439;51.164;13.572;2022-09-02T14:58:21;6.00;;;1.40;;
60610;SDS011;46439;51.164;13.572;2022-09-02T15:00:51;2.80;;;1.50;;
60610;SDS011;46439;51.164;13.572;2022-09-02T15:03:21;2.40;;;1.40;;
60610;SDS011;46439;51.164;13.572;2022-09-02T15:05:50;2.10;;;1.60;;
60610;SDS011;46439;51.164;13.572;2022-09-02T15:08:19;1.30;;;1.20;;
60610;SDS011;46439;51.164;13.572;2022-09-02T15:10:48;2.70;;;1.40;;
60610;SDS011;46439;51.164;13.572;2022-09-02T15:13:20;3.70;;;1.30;;
60610;SDS011;46439;51.164;13.572;2022-09-02T15:15:53;2.40;;;1.40;;
60610;SDS011;46439;51.164;13.572;2022-09-02T15:18:22;2.20;;;1.30;;
60610;SDS011;46439;51.164;13.572;2022-09-02T15:20:51;1.80;;;1.40;;
60610;SDS011;46439;51.164;13.572;2022-09-02T15:23:20;2.70;;;1.40;;
60610;SDS011;46439;51.164;13.572;2022-09-02T15:25:49;1.90;;;1.20;;
60610;SDS011;46439;51.164;13.572;2022-09-02T15:28:18;1.30;;;1.20;;
60610;SDS011;46439;51.164;13.572;2022-09-02T15:30:47;1.60;;;1.40;;
60610;SDS011;46439;51.164;13.572;2022-09-02T15:33:22;2.50;;;1.30;;
60610;SDS011;46439;51.164;13.572;2022-09-02T15:35:50;1.20;;;1.20;;
60610;SDS011;46439;51.164;13.572;2022-09-02T15:38:18;1.30;;;1.10;;
60610;SDS011;46439;51.164;13.572;2022-09-02T15:40:47;2.40;;;1.40;;